createdAt,value
2023-08-18T00:00:26.653Z,7
2023-08-18T00:01:26.713Z,5.42857
2023-08-18T00:02:26.691Z,5.21429
2023-08-18T00:03:26.737Z,4.85714
2023-08-18T00:04:26.729Z,7.64286
2023-08-18T00:05:26.748Z,4.64286
2023-08-18T00:06:26.761Z,6.64286
2023-08-18T00:07:27.082Z,6
2023-08-18T00:08:26.799Z,5
2023-08-18T00:09:26.785Z,4.92857
2023-08-18T00:10:26.808Z,6
2023-08-18T00:11:26.813Z,4.92857
2023-08-18T00:12:26.811Z,5.85714
2023-08-18T00:13:26.844Z,5
2023-08-18T00:14:26.858Z,5.92857
2023-08-18T00:15:26.877Z,5.42857
2023-08-18T00:16:26.947Z,4.64286
2023-08-18T00:17:27.497Z,5.5
2023-08-18T00:18:26.978Z,5.5
2023-08-18T00:19:26.994Z,5.14286
2023-08-18T00:20:27.015Z,5.5
2023-08-18T00:21:27.066Z,5.35714
2023-08-18T00:22:27.084Z,6.5
2023-08-18T00:23:27.094Z,6
2023-08-18T00:24:26.101Z,4.85714
2023-08-18T00:25:26.123Z,6.14286
2023-08-18T00:26:26.154Z,5.42857
2023-08-18T00:27:26.239Z,5.92857
2023-08-18T00:28:26.184Z,6
2023-08-18T00:29:26.184Z,6.42857
2023-08-18T00:30:26.193Z,5.85714
2023-08-18T00:31:26.235Z,6.5
2023-08-18T00:32:26.232Z,7.14286
2023-08-18T00:33:26.232Z,5.71429
2023-08-18T00:34:26.226Z,5.64286
2023-08-18T00:35:26.225Z,6.42857
2023-08-18T00:36:26.240Z,6.5
2023-08-18T00:37:26.477Z,6.92857
2023-08-18T00:38:26.310Z,6.14286
2023-08-18T00:39:26.329Z,5.71429
2023-08-18T00:40:26.350Z,6.35714
2023-08-18T00:41:26.375Z,5.35714
2023-08-18T00:42:26.399Z,6.42857
2023-08-18T00:43:26.436Z,5.5
2023-08-18T00:44:26.441Z,6.21429
2023-08-18T00:45:26.516Z,5.5
2023-08-18T00:46:26.480Z,6.14286
2023-08-18T00:47:27.227Z,7.21429
2023-08-18T00:48:26.551Z,6.21429
2023-08-18T00:49:26.528Z,6
2023-08-18T00:50:26.548Z,6.71429
2023-08-18T00:51:26.553Z,6
2023-08-18T00:52:26.576Z,7.21429
2023-08-18T00:53:26.583Z,7.42857
2023-08-18T00:54:26.593Z,6.5
2023-08-18T00:55:26.602Z,7.64286
2023-08-18T00:56:26.644Z,6.42857
2023-08-18T00:57:26.893Z,6.42857
2023-08-18T00:58:26.672Z,7.92857
2023-08-18T00:59:26.670Z,6.85714
2023-08-18T01:00:26.689Z,6.85714
2023-08-18T01:01:26.754Z,6.85714
2023-08-18T01:02:26.774Z,8.14286
2023-08-18T01:03:26.803Z,6.64286
2023-08-18T01:04:26.800Z,6.92857
2023-08-18T01:05:26.819Z,7.85714
2023-08-18T01:06:26.829Z,8.21429
2023-08-18T01:07:27.133Z,7.85714
2023-08-18T01:08:26.879Z,6.92857
2023-08-18T01:09:26.889Z,6.92857
2023-08-18T01:10:26.906Z,6.85714
2023-08-18T01:11:26.932Z,7
2023-08-18T01:12:26.939Z,7.85714
2023-08-18T01:13:26.960Z,8.14286
2023-08-18T01:14:26.974Z,8.92857
2023-08-18T01:15:26.987Z,6.85714
2023-08-18T01:16:27.066Z,6.92857
2023-08-18T01:17:27.360Z,7
2023-08-18T01:18:27.003Z,6.64286
2023-08-18T01:19:27.005Z,7.42857
2023-08-18T01:20:27.027Z,6.71429
2023-08-18T01:21:27.057Z,6.42857
2023-08-18T01:22:27.112Z,7
2023-08-18T01:23:27.087Z,7
2023-08-18T01:24:26.111Z,6.92857
2023-08-18T01:25:26.141Z,7.35714
2023-08-18T01:26:26.158Z,7
2023-08-18T01:27:26.309Z,7
2023-08-18T01:28:26.196Z,6.92857
2023-08-18T01:29:26.219Z,8.21429
2023-08-18T01:30:26.285Z,7.21429
2023-08-18T01:31:26.326Z,6.92857
2023-08-18T01:32:26.314Z,6.71429
2023-08-18T01:33:26.294Z,8.35714
2023-08-18T01:34:26.288Z,7.14286
2023-08-18T01:35:26.315Z,6.85714
2023-08-18T01:36:26.309Z,7.5
2023-08-18T01:37:26.431Z,7.14286
2023-08-18T01:38:26.333Z,7.5
2023-08-18T01:39:26.336Z,6.92857
2023-08-18T01:40:26.370Z,6.92857
2023-08-18T01:41:26.393Z,7.42857
2023-08-18T01:42:26.407Z,7.14286
2023-08-18T01:43:26.435Z,7.14286
2023-08-18T01:44:26.441Z,8.21429
2023-08-18T01:45:26.466Z,7.14286
2023-08-18T01:46:26.560Z,6.5
2023-08-18T01:47:26.610Z,6.35714
2023-08-18T01:48:26.559Z,6.85714
2023-08-18T01:49:26.560Z,6.35714
2023-08-18T01:50:26.581Z,6.64286
2023-08-18T01:51:26.596Z,7.42857
2023-08-18T01:52:26.609Z,5.42857
2023-08-18T01:53:26.643Z,6.42857
2023-08-18T01:54:26.659Z,5.85714
2023-08-18T01:55:26.667Z,6.42857
2023-08-18T01:56:26.698Z,6.21429
2023-08-18T01:57:26.957Z,6
2023-08-18T01:58:26.706Z,6.64286
2023-08-18T01:59:26.692Z,6
2023-08-18T02:00:26.704Z,6.21429
2023-08-18T02:01:26.814Z,5.71429
2023-08-18T02:02:26.762Z,5.85714
2023-08-18T02:03:26.885Z,6.64286
2023-08-18T02:04:26.823Z,6.42857
2023-08-18T02:05:26.890Z,6.64286
2023-08-18T02:06:26.882Z,5.85714
2023-08-18T02:07:27.094Z,6.5
2023-08-18T02:08:26.931Z,6.42857
2023-08-18T02:09:26.927Z,6.5
2023-08-18T02:10:26.950Z,7.14286
2023-08-18T02:11:26.971Z,6.35714
2023-08-18T02:12:26.994Z,6.42857
2023-08-18T02:13:27.019Z,7.85714
2023-08-18T02:14:27.034Z,5.85714
2023-08-18T02:15:27.049Z,6.35714
2023-08-18T02:16:27.106Z,6.71429
2023-08-18T02:17:27.313Z,8.14286
2023-08-18T02:18:26.106Z,6.85714
2023-08-18T02:19:26.109Z,5.64286
2023-08-18T02:20:26.109Z,6.35714
2023-08-18T02:21:26.122Z,6.35714
2023-08-18T02:22:26.125Z,5.92857
2023-08-18T02:23:26.156Z,6.71429
2023-08-18T02:24:26.171Z,5.64286
2023-08-18T02:25:26.193Z,6.42857
2023-08-18T02:26:26.214Z,5.85714
2023-08-18T02:27:26.256Z,6.92857
2023-08-18T02:28:26.269Z,6.42857
2023-08-18T02:29:26.287Z,5.64286
2023-08-18T02:30:26.313Z,6.5
2023-08-18T02:31:26.342Z,6.5
2023-08-18T02:32:26.348Z,6.64286
2023-08-18T02:33:26.371Z,6
2023-08-18T02:34:26.376Z,6.5
2023-08-18T02:35:26.394Z,6.14286
2023-08-18T02:36:26.404Z,6.35714
2023-08-18T02:37:26.431Z,9.14286
2023-08-18T02:38:26.460Z,7.42857
2023-08-18T02:39:26.456Z,6.92857
2023-08-18T02:40:26.469Z,6
2023-08-18T02:41:26.475Z,6.35714
2023-08-18T02:42:26.488Z,6.14286
2023-08-18T02:43:26.513Z,5.42857
2023-08-18T02:44:26.536Z,5.92857
2023-08-18T02:45:26.561Z,6.21429
2023-08-18T02:46:26.595Z,7.35714
2023-08-18T02:47:26.834Z,6.64286
2023-08-18T02:48:26.677Z,6.5
2023-08-18T02:49:26.674Z,6.35714
2023-08-18T02:50:26.692Z,7.42857
2023-08-18T02:51:26.721Z,6.64286
2023-08-18T02:52:26.761Z,6.5
2023-08-18T02:53:26.787Z,6.35714
2023-08-18T02:54:26.795Z,5.92857
2023-08-18T02:55:26.815Z,6.92857
2023-08-18T02:56:26.841Z,6.21429
2023-08-18T02:57:27.015Z,6.21429
2023-08-18T02:58:26.897Z,7.71429
2023-08-18T02:59:26.904Z,7.14286
2023-08-18T03:00:26.920Z,6.92857
2023-08-18T03:01:26.951Z,6.35714
2023-08-18T03:02:26.956Z,6.5
2023-08-18T03:03:26.998Z,6.5
2023-08-18T03:04:26.983Z,6.42857
2023-08-18T03:05:27.022Z,6.64286
2023-08-18T03:06:27.016Z,8.21429
2023-08-18T03:07:27.289Z,6.71429
2023-08-18T03:08:27.040Z,8
2023-08-18T03:09:27.037Z,6.21429
2023-08-18T03:10:27.065Z,6.14286
2023-08-18T03:11:26.085Z,7.42857
2023-08-18T03:12:26.110Z,6.85714
2023-08-18T03:13:26.216Z,6.71429
2023-08-18T03:14:26.164Z,6.5
2023-08-18T03:15:26.193Z,6.14286
2023-08-18T03:16:26.212Z,6
2023-08-18T03:17:26.243Z,6.5
2023-08-18T03:18:26.254Z,7.64286
2023-08-18T03:19:26.259Z,7.64286
2023-08-18T03:20:26.286Z,7.92857
2023-08-18T03:21:26.299Z,7
2023-08-18T03:22:26.312Z,6.42857
2023-08-18T03:23:26.345Z,7
2023-08-18T03:24:26.342Z,7
2023-08-18T03:25:26.357Z,6.85714
2023-08-18T03:26:26.384Z,6.5
2023-08-18T03:27:26.382Z,6.71429
2023-08-18T03:28:26.399Z,6.42857
2023-08-18T03:29:26.393Z,7
2023-08-18T03:30:26.401Z,6.14286
2023-08-18T03:31:26.433Z,7.21429
2023-08-18T03:32:26.499Z,6.71429
2023-08-18T03:33:26.516Z,7.35714
2023-08-18T03:34:26.503Z,6.71429
2023-08-18T03:35:26.520Z,8.35714
2023-08-18T03:36:26.544Z,6.42857
2023-08-18T03:37:26.603Z,7.42857
2023-08-18T03:38:26.607Z,7.64286
2023-08-18T03:39:26.635Z,7.64286
2023-08-18T03:40:26.645Z,6.71429
2023-08-18T03:41:26.672Z,6.71429
2023-08-18T03:42:26.691Z,7.85714
2023-08-18T03:43:26.718Z,7
2023-08-18T03:44:26.726Z,7.35714
2023-08-18T03:45:26.830Z,6.71429
2023-08-18T03:46:26.857Z,8.14286
2023-08-18T03:47:27.028Z,8
2023-08-18T03:48:26.823Z,7.14286
2023-08-18T03:49:26.778Z,7.14286
2023-08-18T03:50:26.785Z,6.92857
2023-08-18T03:51:26.789Z,8
2023-08-18T03:52:26.796Z,7.5
2023-08-18T03:53:26.845Z,7.85714
2023-08-18T03:54:26.863Z,7
2023-08-18T03:55:26.878Z,7.85714
2023-08-18T03:56:26.903Z,7.64286
2023-08-18T03:57:27.045Z,7.92857
2023-08-18T03:58:26.954Z,8.42857
2023-08-18T03:59:27.010Z,7.71429
2023-08-18T04:00:27.004Z,7.85714
2023-08-18T04:01:27.084Z,7.64286
2023-08-18T04:02:27.307Z,7.85714
2023-08-18T04:03:27.094Z,7.85714
2023-08-18T04:04:26.095Z,9.35714
2023-08-18T04:05:26.118Z,7.71429
2023-08-18T04:06:26.133Z,9
2023-08-18T04:07:26.153Z,8.92857
2023-08-18T04:08:26.172Z,8.35714
2023-08-18T04:09:26.176Z,8.71429
2023-08-18T04:10:26.188Z,9.14286
2023-08-18T04:11:26.199Z,9.5
2023-08-18T04:12:26.204Z,10
2023-08-18T04:13:26.204Z,9.35714
2023-08-18T04:14:26.218Z,10.4286
2023-08-18T04:15:26.263Z,10.4286
2023-08-18T04:16:26.282Z,10.5
2023-08-18T04:17:26.947Z,11
2023-08-18T04:18:26.336Z,11.2143
2023-08-18T04:19:26.377Z,10.5
2023-08-18T04:20:26.387Z,11.5
2023-08-18T04:21:26.398Z,11.7143
2023-08-18T04:22:26.430Z,12.7143
2023-08-18T04:23:26.452Z,12.8571
2023-08-18T04:24:26.492Z,12.1429
2023-08-18T04:25:26.500Z,13
2023-08-18T04:26:26.947Z,12.2143
2023-08-18T04:27:26.548Z,12.6429
2023-08-18T04:28:26.592Z,12.9286
2023-08-18T04:29:26.579Z,12.4286
2023-08-18T04:30:26.599Z,13.5
2023-08-18T04:31:26.662Z,12.7143
2023-08-18T04:32:26.693Z,12.3571
2023-08-18T04:33:26.633Z,13.3571
2023-08-18T04:34:26.632Z,15.6429
2023-08-18T04:35:26.637Z,12.9286
2023-08-18T04:36:26.664Z,13.1429
2023-08-18T04:37:26.689Z,13
2023-08-18T04:38:26.727Z,13.2143
2023-08-18T04:39:26.744Z,13.4286
2023-08-18T04:40:26.775Z,13.9286
2023-08-18T04:41:26.790Z,13.6429
2023-08-18T04:42:27.073Z,14.3571
2023-08-18T04:43:26.856Z,14.2143
2023-08-18T04:44:26.858Z,14.2143
2023-08-18T04:45:26.877Z,13.8571
2023-08-18T04:46:26.953Z,14.2143
2023-08-18T04:47:26.932Z,14.3571
2023-08-18T04:48:26.975Z,14.6429
2023-08-18T04:49:26.954Z,15.1429
2023-08-18T04:50:26.991Z,15
2023-08-18T04:51:26.991Z,14
2023-08-18T04:52:27.364Z,13.7143
2023-08-18T04:53:27.036Z,15.8571
2023-08-18T04:54:27.008Z,17.2143
2023-08-18T04:55:27.036Z,15.3571
2023-08-18T04:56:27.098Z,14.4286
2023-08-18T04:57:27.049Z,15.1429
2023-08-18T04:58:27.079Z,16.7143
2023-08-18T04:59:26.097Z,14.2143
2023-08-18T05:00:26.134Z,14.2143
2023-08-18T05:01:26.141Z,14.4286
2023-08-18T05:02:26.168Z,15.6429
2023-08-18T05:03:26.291Z,16.7143
2023-08-18T05:04:26.219Z,16.6429
2023-08-18T05:05:26.255Z,15.6429
2023-08-18T05:06:26.266Z,17.2143
2023-08-18T05:07:26.458Z,15.8571
2023-08-18T05:08:26.290Z,16.1429
2023-08-18T05:09:26.307Z,15.8571
2023-08-18T05:10:26.315Z,15.7143
2023-08-18T05:11:26.349Z,16
2023-08-18T05:12:26.343Z,16.3571
2023-08-18T05:13:26.370Z,17.3571
2023-08-18T05:14:26.361Z,15.9286
2023-08-18T05:15:26.620Z,17
2023-08-18T05:16:26.416Z,16.3571
2023-08-18T05:17:26.458Z,15.9286
2023-08-18T05:18:26.427Z,16.3571
2023-08-18T05:19:26.418Z,16.2143
2023-08-18T05:20:26.449Z,16.2143
2023-08-18T05:21:26.516Z,16.9286
2023-08-18T05:22:26.488Z,16.7143
2023-08-18T05:23:26.528Z,16.5
2023-08-18T05:24:26.532Z,17.6429
2023-08-18T05:25:27.944Z,17.2143
2023-08-18T05:26:26.582Z,19.4286
2023-08-18T05:27:26.604Z,19
2023-08-18T05:28:26.645Z,18.3571
2023-08-18T05:29:26.648Z,20.8571
2023-08-18T05:30:26.675Z,18.2143
2023-08-18T05:31:26.691Z,18.7143
2023-08-18T05:32:26.733Z,18.5
2023-08-18T05:33:26.733Z,17.3571
2023-08-18T05:34:26.731Z,18.4286
2023-08-18T05:35:28.140Z,18.5
2023-08-18T05:36:26.742Z,17.9286
2023-08-18T05:37:26.759Z,17.3571
2023-08-18T05:38:26.761Z,18.6429
2023-08-18T05:39:26.767Z,16.9286
2023-08-18T05:40:26.802Z,18.7143
2023-08-18T05:41:26.827Z,18.8571
2023-08-18T05:42:27.032Z,17.9286
2023-08-18T05:43:26.876Z,19.3571
2023-08-18T05:44:26.914Z,21.8571
2023-08-18T05:45:26.933Z,18.1429
2023-08-18T05:46:26.992Z,20.4286
2023-08-18T05:47:27.035Z,19.4286
2023-08-18T05:48:26.989Z,20.3571
2023-08-18T05:49:27.024Z,19.8571
2023-08-18T05:50:27.037Z,18.3571
2023-08-18T05:51:27.063Z,20
2023-08-18T05:52:27.225Z,19.1429
2023-08-18T05:53:27.081Z,17.6429
2023-08-18T05:54:26.105Z,18.8571
2023-08-18T05:55:26.109Z,20
2023-08-18T05:56:26.119Z,20
2023-08-18T05:57:26.130Z,20.4286
2023-08-18T05:58:26.143Z,19.4286
2023-08-18T05:59:26.137Z,18
2023-08-18T06:00:26.151Z,17.1429
2023-08-18T06:01:26.270Z,17.1429
2023-08-18T06:02:26.250Z,18.1429
2023-08-18T06:03:26.259Z,16.9286
2023-08-18T06:04:26.260Z,18
2023-08-18T06:05:26.304Z,17.4286
2023-08-18T06:06:26.319Z,18.5
2023-08-18T06:07:26.343Z,15.9286
2023-08-18T06:08:26.377Z,18.4286
2023-08-18T06:09:26.389Z,17.7143
2023-08-18T06:10:26.428Z,19.6429
2023-08-18T06:11:26.438Z,16.7143
2023-08-18T06:12:26.464Z,17.6429
2023-08-18T06:13:26.493Z,16.6429
2023-08-18T06:14:26.498Z,18.3571
2023-08-18T06:15:26.516Z,18.8571
2023-08-18T06:16:26.556Z,18.1429
2023-08-18T06:17:26.569Z,17.5
2023-08-18T06:18:26.570Z,18.8571
2023-08-18T06:19:26.571Z,20.2143
2023-08-18T06:20:26.578Z,17.4286
2023-08-18T06:21:26.593Z,18.8571
2023-08-18T06:22:26.598Z,18.2143
2023-08-18T06:23:26.626Z,18.6429
2023-08-18T06:24:26.648Z,19.3571
2023-08-18T06:25:26.691Z,16.5
2023-08-18T06:26:26.701Z,17
2023-08-18T06:27:26.724Z,16.8571
2023-08-18T06:28:26.771Z,19.2143
2023-08-18T06:29:26.771Z,16.2143
2023-08-18T06:30:26.799Z,17.5
2023-08-18T06:31:26.837Z,17.6429
2023-08-18T06:32:27.035Z,16.9286
2023-08-18T06:33:26.866Z,16.2143
2023-08-18T06:34:26.870Z,17.4286
2023-08-18T06:35:26.900Z,17.3571
2023-08-18T06:36:26.910Z,17.2143
2023-08-18T06:37:26.943Z,16.3571
2023-08-18T06:38:26.963Z,15.6429
2023-08-18T06:39:26.992Z,16.2143
2023-08-18T06:40:26.995Z,15.2143
2023-08-18T06:41:27.001Z,16.8571
2023-08-18T06:42:27.277Z,15.3571
2023-08-18T06:43:27.051Z,14.7143
2023-08-18T06:44:27.018Z,14.4286
2023-08-18T06:45:27.047Z,14.7143
2023-08-18T06:46:27.079Z,13.9286
2023-08-18T06:47:26.128Z,14.7143
2023-08-18T06:48:26.132Z,15.2143
2023-08-18T06:49:26.141Z,14.6429
2023-08-18T06:50:26.183Z,14.2143
2023-08-18T06:51:26.200Z,15.1429
2023-08-18T06:52:26.225Z,13
2023-08-18T06:53:26.262Z,13.6429
2023-08-18T06:54:26.283Z,12.9286
2023-08-18T06:55:31.264Z,13.2143
2023-08-18T06:56:26.324Z,12.9286
2023-08-18T06:57:26.325Z,11.7143
2023-08-18T06:58:26.342Z,12.4286
2023-08-18T06:59:26.356Z,12.3571
2023-08-18T07:00:26.370Z,11.3571
2023-08-18T07:01:26.406Z,11.9286
2023-08-18T07:02:26.547Z,10.8571
2023-08-18T07:03:26.566Z,11.5
2023-08-18T07:04:26.425Z,10.6429
2023-08-18T07:05:26.433Z,10.4286
2023-08-18T07:06:26.460Z,10.4286
2023-08-18T07:07:26.478Z,10
2023-08-18T07:08:26.526Z,9.85714
2023-08-18T07:09:26.544Z,10.2143
2023-08-18T07:10:26.561Z,9.14286
2023-08-18T07:11:26.582Z,9.14286
2023-08-18T07:12:26.681Z,9.71429
2023-08-18T07:13:26.651Z,9.85714
2023-08-18T07:14:26.673Z,9.71429
2023-08-18T07:15:26.690Z,8.85714
2023-08-18T07:16:26.716Z,8.92857
2023-08-18T07:17:26.747Z,8.71429
2023-08-18T07:18:26.751Z,8.5
2023-08-18T07:19:26.769Z,8.85714
2023-08-18T07:20:26.785Z,9
2023-08-18T07:21:26.796Z,9.35714
2023-08-18T07:22:27.037Z,9
2023-08-18T07:23:26.844Z,9.64286
2023-08-18T07:24:29.582Z,8.5
2023-08-18T07:25:26.845Z,8.92857
2023-08-18T07:26:26.864Z,9
2023-08-18T07:27:26.871Z,8.85714
2023-08-18T07:28:26.900Z,9.14286
2023-08-18T07:29:26.925Z,9
2023-08-18T07:30:26.963Z,8.71429
2023-08-18T07:31:26.985Z,8.92857
2023-08-18T07:32:27.018Z,8.35714
2023-08-18T07:33:27.037Z,8.92857
2023-08-18T07:34:27.039Z,8.71429
2023-08-18T07:35:28.753Z,7.92857
2023-08-18T07:36:26.110Z,8
2023-08-18T07:37:51.962Z,8.21429
2023-08-18T07:38:26.162Z,8.64286
2023-08-18T07:39:26.165Z,7.92857
2023-08-18T07:40:26.189Z,7.71429
2023-08-18T07:41:26.205Z,8
2023-08-18T07:42:26.223Z,7.85714
2023-08-18T07:43:26.251Z,7.64286
2023-08-18T07:44:26.252Z,7.35714
2023-08-18T07:45:26.270Z,7.5
2023-08-18T07:46:26.277Z,7.5
2023-08-18T07:47:26.313Z,7.71429
2023-08-18T07:48:26.339Z,7.64286
2023-08-18T07:49:26.352Z,9.14286
2023-08-18T07:50:26.327Z,8.21429
2023-08-18T07:51:26.350Z,9
2023-08-18T07:52:26.365Z,8.21429
2023-08-18T07:53:26.389Z,8.21429
2023-08-18T07:54:26.407Z,8.35714
2023-08-18T07:55:26.436Z,8.92857
2023-08-18T07:56:26.470Z,9.85714
2023-08-18T07:57:26.487Z,9.14286
2023-08-18T07:58:26.518Z,9.14286
2023-08-18T07:59:26.524Z,8.5
2023-08-18T08:00:26.540Z,8.85714
2023-08-18T08:01:26.582Z,8.92857
2023-08-18T08:02:30.549Z,9.5
2023-08-18T08:03:26.762Z,8.71429
2023-08-18T08:04:26.599Z,9
2023-08-18T08:05:26.621Z,9
2023-08-18T08:06:26.623Z,8.5
2023-08-18T08:07:26.629Z,9
2023-08-18T08:08:26.820Z,9.14286
2023-08-18T08:09:26.644Z,8.42857
2023-08-18T08:10:26.692Z,8
2023-08-18T08:11:26.702Z,8
2023-08-18T08:12:27.014Z,8.64286
2023-08-18T08:13:26.754Z,8
2023-08-18T08:14:26.788Z,9.14286
2023-08-18T08:15:26.837Z,8.42857
2023-08-18T08:16:26.918Z,8.64286
2023-08-18T08:17:26.860Z,7.92857
2023-08-18T08:18:26.890Z,8.21429
2023-08-18T08:19:26.930Z,7.92857
2023-08-18T08:20:30.267Z,8.42857
2023-08-18T08:21:27.006Z,8.92857
2023-08-18T08:22:27.032Z,8.85714
2023-08-18T08:23:27.019Z,8.42857
2023-08-18T08:24:27.035Z,8.42857
2023-08-18T08:25:27.114Z,9
2023-08-18T08:26:27.081Z,8.42857
2023-08-18T08:27:27.110Z,8.92857
2023-08-18T08:28:28.763Z,8.35714
2023-08-18T08:29:27.144Z,8.71429
2023-08-18T08:31:27.190Z,8.92857
2023-08-18T08:32:27.223Z,8.21429
2023-08-18T08:33:27.203Z,9
2023-08-18T08:34:27.233Z,8.64286
2023-08-18T08:35:29.148Z,8.71429
2023-08-18T08:36:32.044Z,8.85714
2023-08-18T08:37:27.246Z,8.21429
2023-08-18T08:38:27.275Z,9
2023-08-18T08:39:27.303Z,7.85714
2023-08-18T08:40:27.366Z,9
2023-08-18T08:41:27.368Z,8.21429
2023-08-18T08:42:27.645Z,7.85714
2023-08-18T08:43:27.414Z,8.85714
2023-08-18T08:44:27.440Z,8.42857
2023-08-18T08:45:27.462Z,8.21429
2023-08-18T08:46:27.495Z,8.14286
2023-08-18T08:47:27.629Z,8.85714
2023-08-18T08:48:27.519Z,8.14286
2023-08-18T08:49:27.545Z,9
2023-08-18T08:50:31.410Z,8.85714
2023-08-18T08:51:27.589Z,8.35714
2023-08-18T08:52:28.072Z,8
2023-08-18T08:53:27.630Z,7.92857
2023-08-18T08:54:27.632Z,8.42857
2023-08-18T08:55:27.635Z,8.21429
2023-08-18T08:56:27.640Z,7.5
2023-08-18T08:57:27.639Z,8.64286
2023-08-18T08:58:27.673Z,8
2023-08-18T08:59:27.688Z,9
2023-08-18T09:00:28.383Z,8.35714
2023-08-18T09:01:27.741Z,8.35714
2023-08-18T09:02:28.008Z,8.85714
2023-08-18T09:03:27.874Z,8.35714
2023-08-18T09:04:27.826Z,7.92857
2023-08-18T09:05:28.062Z,8.14286
2023-08-18T09:06:27.874Z,8.21429
2023-08-18T09:07:27.898Z,8
2023-08-18T09:08:27.939Z,7.92857
2023-08-18T09:09:27.947Z,8
2023-08-18T09:10:27.994Z,7.64286
2023-08-18T09:11:27.987Z,7.85714
2023-08-18T09:13:28.045Z,8
2023-08-18T09:14:28.055Z,7.92857
2023-08-18T09:15:28.097Z,7.35714
2023-08-18T09:16:28.179Z,8.21429
2023-08-18T09:17:29.029Z,7.64286
2023-08-18T09:18:27.143Z,7.92857
2023-08-18T09:19:27.147Z,7.85714
2023-08-18T09:20:29.900Z,7.85714
2023-08-18T09:21:27.160Z,8.14286
2023-08-18T09:22:27.287Z,7.71429
2023-08-18T09:23:27.245Z,7.71429
2023-08-18T09:24:27.211Z,7.71429
2023-08-18T09:25:28.080Z,8.85714
2023-08-18T09:26:27.253Z,12.7143
2023-08-18T09:27:27.361Z,10.6429
2023-08-18T09:28:27.361Z,7.85714
2023-08-18T09:29:27.336Z,7.42857
2023-08-18T09:30:27.357Z,7.92857
2023-08-18T09:31:27.390Z,7.64286
2023-08-18T09:32:27.456Z,10
2023-08-18T09:33:27.488Z,9.21429
2023-08-18T09:34:27.469Z,8.21429
2023-08-18T09:35:27.486Z,8.42857
2023-08-18T09:36:27.506Z,7.5
2023-08-18T09:37:27.540Z,7.92857
2023-08-18T09:38:29.537Z,7.64286
2023-08-18T09:39:27.572Z,7.21429
2023-08-18T09:40:27.620Z,7.14286
2023-08-18T09:41:27.609Z,7.42857
2023-08-18T09:42:28.064Z,8.5
2023-08-18T09:43:27.643Z,8.71429
2023-08-18T09:44:27.641Z,7.64286
2023-08-18T09:45:27.906Z,7.71429
2023-08-18T09:46:27.769Z,7.35714
2023-08-18T09:47:27.690Z,8.14286
2023-08-18T09:48:27.695Z,8.5
2023-08-18T09:49:27.743Z,8.21429
2023-08-18T09:50:27.746Z,9.71429
2023-08-18T09:51:27.763Z,12.9286
2023-08-18T09:52:28.160Z,8.14286
2023-08-18T09:53:27.819Z,8.42857
2023-08-18T09:54:27.847Z,7.92857
2023-08-18T09:55:27.859Z,8.5
2023-08-18T09:56:27.896Z,8.64286
2023-08-18T09:57:27.906Z,9.21429
2023-08-18T09:58:27.940Z,8.85714
2023-08-18T09:59:27.979Z,8.35714
2023-08-18T10:00:27.969Z,9.92857
2023-08-18T10:01:27.987Z,11.1429
2023-08-18T10:02:28.265Z,8.14286
2023-08-18T10:03:28.064Z,9.21429
2023-08-18T10:04:28.019Z,8.71429
2023-08-18T10:05:28.019Z,7.85714
2023-08-18T10:06:28.017Z,8.64286
2023-08-18T10:07:28.025Z,7.71429
2023-08-18T10:08:28.059Z,8.5
2023-08-18T10:09:28.060Z,8.21429
2023-08-18T10:10:27.152Z,8
2023-08-18T10:11:29.405Z,8.71429
2023-08-18T10:12:27.194Z,8.5
2023-08-18T10:13:27.186Z,7.71429
2023-08-18T10:14:27.202Z,7.64286
2023-08-18T10:15:27.249Z,7.85714
2023-08-18T10:16:27.362Z,7.92857
2023-08-18T10:17:27.342Z,8.42857
2023-08-18T10:18:27.332Z,7.92857
2023-08-18T10:19:27.321Z,8.21429
2023-08-18T10:20:27.356Z,7.92857
2023-08-18T10:21:27.366Z,7.85714
2023-08-18T10:22:27.697Z,7.85714
2023-08-18T10:23:27.416Z,7.71429
2023-08-18T10:24:29.292Z,7.92857
2023-08-18T10:25:27.439Z,7.92857
2023-08-18T10:26:27.442Z,9.35714
2023-08-18T10:27:27.489Z,8
2023-08-18T10:28:27.499Z,8.21429
2023-08-18T10:29:35.152Z,7.42857
2023-08-18T10:30:27.527Z,7.64286
2023-08-18T10:31:27.530Z,7.85714
2023-08-18T10:32:27.672Z,8.42857
2023-08-18T10:33:27.573Z,7.64286
2023-08-18T10:34:27.586Z,8.35714
2023-08-18T10:35:27.616Z,8.21429
2023-08-18T10:36:29.793Z,8
2023-08-18T10:37:27.670Z,7.64286
2023-08-18T10:38:27.717Z,8.35714
2023-08-18T10:39:27.734Z,8
2023-08-18T10:40:27.751Z,7.42857
2023-08-18T10:41:27.815Z,7.21429
2023-08-18T10:42:30.101Z,6.92857
2023-08-18T10:43:27.855Z,7.14286
2023-08-18T10:44:27.840Z,7.14286
2023-08-18T10:45:27.881Z,7
2023-08-18T10:46:27.940Z,7.35714
2023-08-18T10:47:27.973Z,6.35714
2023-08-18T10:48:27.961Z,7.5
2023-08-18T10:49:27.970Z,6.71429
2023-08-18T10:50:27.974Z,7.42857
2023-08-18T10:51:27.989Z,7.35714
2023-08-18T10:52:28.385Z,7.42857
2023-08-18T10:53:28.034Z,7.85714
2023-08-18T10:54:28.030Z,7.21429
2023-08-18T10:55:28.032Z,7.35714
2023-08-18T10:56:28.046Z,6.92857
2023-08-18T10:57:28.069Z,6.92857
2023-08-18T10:58:27.125Z,6.85714
2023-08-18T10:59:27.139Z,7.21429
2023-08-18T11:00:27.164Z,7.14286
2023-08-18T11:01:27.200Z,6.71429
2023-08-18T11:02:27.261Z,7.21429
2023-08-18T11:03:27.253Z,6.64286
2023-08-18T11:04:27.275Z,7.21429
2023-08-18T11:05:27.286Z,8.35714
2023-08-18T11:06:27.318Z,7.71429
2023-08-18T11:07:27.351Z,7.35714
2023-08-18T11:08:27.399Z,6.71429
2023-08-18T11:09:27.385Z,7
2023-08-18T11:10:27.410Z,8.14286
2023-08-18T11:11:27.425Z,6.85714
2023-08-18T11:12:27.481Z,7.64286
2023-08-18T11:13:27.475Z,6.92857
2023-08-18T11:14:27.465Z,7.21429
2023-08-18T11:15:27.505Z,7
2023-08-18T11:16:27.482Z,7
2023-08-18T11:17:27.514Z,7.71429
2023-08-18T11:18:30.164Z,7.35714
2023-08-18T11:19:27.526Z,7.92857
2023-08-18T11:20:27.556Z,7.64286
2023-08-18T11:21:27.590Z,6.92857
2023-08-18T11:22:27.873Z,7.64286
2023-08-18T11:23:27.652Z,7.42857
2023-08-18T11:24:27.678Z,8.64286
2023-08-18T11:25:27.717Z,7.85714
2023-08-18T11:26:27.725Z,7.5
2023-08-18T11:27:27.749Z,7.35714
2023-08-18T11:28:27.801Z,7.42857
2023-08-18T11:29:27.788Z,7
2023-08-18T11:30:27.816Z,6.92857
2023-08-18T11:31:27.879Z,7.21429
2023-08-18T11:32:28.092Z,7
2023-08-18T11:33:27.946Z,7.14286
2023-08-18T11:34:27.892Z,6.5
2023-08-18T11:35:28.212Z,6.64286
2023-08-18T11:36:27.920Z,6.92857
2023-08-18T11:37:27.961Z,7
2023-08-18T11:38:27.951Z,7.71429
2023-08-18T11:39:27.953Z,7.21429
2023-08-18T11:40:27.956Z,6.85714
2023-08-18T11:41:27.972Z,7
2023-08-18T11:42:28.355Z,7.64286
2023-08-18T11:43:28.039Z,7.14286
2023-08-18T11:44:28.043Z,8.21429
2023-08-18T11:45:28.070Z,6.85714
2023-08-18T11:46:27.303Z,7.85714
2023-08-18T11:47:27.167Z,7.21429
2023-08-18T11:48:27.179Z,7.42857
2023-08-18T11:49:27.227Z,7.42857
2023-08-18T11:50:27.219Z,7.14286
2023-08-18T11:51:27.243Z,7.14286
2023-08-18T11:52:27.259Z,7.21429
2023-08-18T11:53:27.372Z,7.42857
2023-08-18T11:54:27.325Z,7.5
2023-08-18T11:55:27.349Z,7.5
2023-08-18T11:56:27.450Z,7.42857
2023-08-18T11:57:27.379Z,7.42857
2023-08-18T11:58:27.405Z,7.64286
2023-08-18T11:59:27.396Z,7.42857
2023-08-18T12:00:27.406Z,7.92857
2023-08-18T12:01:27.430Z,8.35714
2023-08-18T12:02:27.733Z,8
2023-08-18T12:03:27.953Z,7.85714
2023-08-18T12:04:27.437Z,7.64286
2023-08-18T12:05:27.449Z,7.71429
2023-08-18T12:06:27.528Z,8.71429
2023-08-18T12:07:27.511Z,7.85714
2023-08-18T12:08:27.584Z,7.71429
2023-08-18T12:09:27.555Z,7.85714
2023-08-18T12:10:27.580Z,8.35714
2023-08-18T12:11:27.612Z,7.64286
2023-08-18T12:12:27.838Z,7.35714
2023-08-18T12:13:27.688Z,7.64286
2023-08-18T12:14:27.674Z,7.71429
2023-08-18T12:15:27.737Z,7.21429
2023-08-18T12:16:27.722Z,7.42857
2023-08-18T12:17:27.745Z,7.85714
2023-08-18T12:18:27.761Z,7.5
2023-08-18T12:19:27.763Z,7.85714
2023-08-18T12:20:27.784Z,8.14286
2023-08-18T12:21:27.800Z,7.42857
2023-08-18T12:22:27.986Z,7.85714
2023-08-18T12:23:27.834Z,7.85714
2023-08-18T12:24:27.839Z,7.71429
2023-08-18T12:25:27.838Z,7.14286
2023-08-18T12:26:27.977Z,7.64286
2023-08-18T12:27:27.882Z,7.42857
2023-08-18T12:28:27.928Z,7.42857
2023-08-18T12:29:27.929Z,8